sensor_id;sensor_type;location;lat;lon;timestamp;P1;durP1;ratioP1;P2;durP2;ratioP2
4704;SDS011;2366;51.332;6.610;2023-02-05T00:01:20;32.23;;;13.50;;
4704;SDS011;2366;51.332;6.610;2023-02-05T00:03:46;28.03;;;14.97;;
4704;SDS011;2366;51.332;6.610;2023-02-05T00:06:11;40.00;;;15.20;;
4704;SDS011;2366;51.332;6.610;2023-02-05T00:08:36;45.70;;;16.10;;
4704;SDS011;2366;51.332;6.610;2023-02-05T00:11:02;44.93;;;16.73;;
4704;SDS011;2366;51.332;6.610;2023-02-05T00:13:33;50.47;;;16.58;;
4704;SDS011;2366;51.332;6.610;2023-02-05T00:16:06;33.70;;;17.17;;
4704;SDS011;2366;51.332;6.610;2023-02-05T00:18:37;47.63;;;17.42;;
4704;SDS011;2366;51.332;6.610;2023-02-05T00:21:03;42.80;;;16.83;;
4704;SDS011;2366;51.332;6.610;2023-02-05T00:23:29;46.28;;;16.52;;
4704;SDS011;2366;51.332;6.610;2023-02-05T00:25:55;50.77;;;18.30;;
4704;SDS011;2366;51.332;6.610;2023-02-05T00:28:20;31.60;;;14.93;;
4704;SDS011;2366;51.332;6.610;2023-02-05T00:30:46;37.50;;;17.57;;
4704;SDS011;2366;51.332;6.610;2023-02-05T00:33:11;46.17;;;15.30;;
4704;SDS011;2366;51.332;6.610;2023-02-05T00:35:36;31.57;;;16.70;;
4704;SDS011;2366;51.332;6.610;2023-02-05T00:38:02;36.20;;;15.43;;
4704;SDS011;2366;51.332;6.610;2023-02-05T00:40:27;35.10;;;16.53;;
4704;SDS011;2366;51.332;6.610;2023-02-05T00:42:53;51.67;;;16.40;;
4704;SDS011;2366;51.332;6.610;2023-02-05T00:45:18;42.23;;;14.43;;
4704;SDS011;2366;51.332;6.610;2023-02-05T00:47:44;49.33;;;15.83;;
4704;SDS011;2366;51.332;6.610;2023-02-05T00:50:09;38.07;;;15.40;;
4704;SDS011;2366;51.332;6.610;2023-02-05T00:52:35;41.93;;;15.63;;
4704;SDS011;2366;51.332;6.610;2023-02-05T00:55:00;28.50;;;13.20;;
4704;SDS011;2366;51.332;6.610;2023-02-05T00:57:26;29.70;;;13.83;;
4704;SDS011;2366;51.332;6.610;2023-02-05T00:59:51;54.50;;;16.10;;
4704;SDS011;2366;51.332;6.610;2023-02-05T01:02:20;40.23;;;18.13;;
4704;SDS011;2366;51.332;6.610;2023-02-05T01:04:51;39.30;;;16.27;;
4704;SDS011;2366;51.332;6.610;2023-02-05T01:07:17;39.40;;;15.63;;
4704;SDS011;2366;51.332;6.610;2023-02-05T01:09:44;45.97;;;18.50;;
4704;SDS011;2366;51.332;6.610;2023-02-05T01:12:10;45.90;;;15.70;;
4704;SDS011;2366;51.332;6.610;2023-02-05T01:14:38;36.05;;;14.90;;
4704;SDS011;2366;51.332;6.610;2023-02-05T01:17:03;32.30;;;16.40;;
4704;SDS011;2366;51.332;6.610;2023-02-05T01:19:28;37.00;;;17.37;;
4704;SDS011;2366;51.332;6.610;2023-02-05T01:21:54;47.00;;;17.73;;
4704;SDS011;2366;51.332;6.610;2023-02-05T01:24:19;34.00;;;15.13;;
4704;SDS011;2366;51.332;6.610;2023-02-05T01:26:45;45.00;;;16.57;;
4704;SDS011;2366;51.332;6.610;2023-02-05T01:29:11;49.92;;;16.42;;
4704;SDS011;2366;51.332;6.610;2023-02-05T01:31:36;41.07;;;15.87;;
4704;SDS011;2366;51.332;6.610;2023-02-05T01:34:02;36.13;;;16.53;;
4704;SDS011;2366;51.332;6.610;2023-02-05T01:36:27;37.70;;;14.60;;
4704;SDS011;2366;51.332;6.610;2023-02-05T01:38:53;36.00;;;13.80;;
4704;SDS011;2366;51.332;6.610;2023-02-05T01:41:18;27.70;;;14.73;;
4704;SDS011;2366;51.332;6.610;2023-02-05T01:46:29;47.53;;;15.80;;
4704;SDS011;2366;51.332;6.610;2023-02-05T01:48:55;46.37;;;16.53;;
4704;SDS011;2366;51.332;6.610;2023-02-05T01:51:23;43.60;;;16.50;;
4704;SDS011;2366;51.332;6.610;2023-02-05T01:53:53;36.22;;;13.68;;
4704;SDS011;2366;51.332;6.610;2023-02-05T01:56:23;42.13;;;14.53;;
4704;SDS011;2366;51.332;6.610;2023-02-05T01:58:55;32.92;;;14.60;;
4704;SDS011;2366;51.332;6.610;2023-02-05T02:01:36;40.60;;;15.30;;
4704;SDS011;2366;51.332;6.610;2023-02-05T02:04:03;28.30;;;14.52;;
4704;SDS011;2366;51.332;6.610;2023-02-05T02:06:30;37.70;;;16.85;;
4704;SDS011;2366;51.332;6.610;2023-02-05T02:08:57;34.80;;;14.65;;
4704;SDS011;2366;51.332;6.610;2023-02-05T02:11:23;45.97;;;15.90;;
4704;SDS011;2366;51.332;6.610;2023-02-05T02:13:53;34.92;;;15.40;;
4704;SDS011;2366;51.332;6.610;2023-02-05T02:16:20;33.00;;;14.68;;
4704;SDS011;2366;51.332;6.610;2023-02-05T02:18:48;33.08;;;16.00;;
4704;SDS011;2366;51.332;6.610;2023-02-05T02:24:21;37.03;;;16.67;;
4704;SDS011;2366;51.332;6.610;2023-02-05T02:32:45;48.03;;;17.73;;
4704;SDS011;2366;51.332;6.610;2023-02-05T02:35:27;54.97;;;21.38;;
4704;SDS011;2366;51.332;6.610;2023-02-05T02:40:53;35.80;;;19.90;;
4704;SDS011;2366;51.332;6.610;2023-02-05T02:43:25;47.45;;;21.25;;
4704;SDS011;2366;51.332;6.610;2023-02-05T02:46:02;38.45;;;19.60;;
4704;SDS011;2366;51.332;6.610;2023-02-05T02:48:32;48.58;;;19.73;;
4704;SDS011;2366;51.332;6.610;2023-02-05T02:51:02;40.47;;;19.67;;
4704;SDS011;2366;51.332;6.610;2023-02-05T02:53:32;46.92;;;20.05;;
4704;SDS011;2366;51.332;6.610;2023-02-05T02:56:01;48.50;;;20.10;;
4704;SDS011;2366;51.332;6.610;2023-02-05T02:58:32;44.58;;;20.67;;
4704;SDS011;2366;51.332;6.610;2023-02-05T03:01:02;44.20;;;20.73;;
4704;SDS011;2366;51.332;6.610;2023-02-05T03:03:31;48.10;;;21.30;;
4704;SDS011;2366;51.332;6.610;2023-02-05T03:06:02;55.22;;;20.60;;
4704;SDS011;2366;51.332;6.610;2023-02-05T03:08:32;48.28;;;21.00;;
4704;SDS011;2366;51.332;6.610;2023-02-05T03:11:05;48.00;;;21.98;;
4704;SDS011;2366;51.332;6.610;2023-02-05T03:13:36;43.05;;;21.23;;
4704;SDS011;2366;51.332;6.610;2023-02-05T03:16:02;36.27;;;21.00;;
4704;SDS011;2366;51.332;6.610;2023-02-05T03:18:28;44.87;;;22.70;;
4704;SDS011;2366;51.332;6.610;2023-02-05T03:20:55;50.70;;;21.95;;
4704;SDS011;2366;51.332;6.610;2023-02-05T03:23:25;45.47;;;21.40;;
4704;SDS011;2366;51.332;6.610;2023-02-05T03:25:51;52.80;;;22.60;;
4704;SDS011;2366;51.332;6.610;2023-02-05T03:28:17;51.10;;;23.63;;
4704;SDS011;2366;51.332;6.610;2023-02-05T03:38:51;61.80;;;26.07;;
4704;SDS011;2366;51.332;6.610;2023-02-05T03:41:34;56.95;;;26.83;;
4704;SDS011;2366;51.332;6.610;2023-02-05T03:49:52;60.97;;;26.83;;
4704;SDS011;2366;51.332;6.610;2023-02-05T03:52:46;67.38;;;27.45;;
4704;SDS011;2366;51.332;6.610;2023-02-05T03:55:22;64.38;;;30.90;;
4704;SDS011;2366;51.332;6.610;2023-02-05T03:57:59;62.05;;;27.52;;
4704;SDS011;2366;51.332;6.610;2023-02-05T04:00:28;68.75;;;30.27;;
4704;SDS011;2366;51.332;6.610;2023-02-05T04:02:55;77.72;;;29.75;;
4704;SDS011;2366;51.332;6.610;2023-02-05T04:05:20;73.70;;;29.70;;
4704;SDS011;2366;51.332;6.610;2023-02-05T04:07:47;80.53;;;30.50;;
4704;SDS011;2366;51.332;6.610;2023-02-05T04:10:16;70.18;;;33.05;;
4704;SDS011;2366;51.332;6.610;2023-02-05T04:12:42;82.75;;;32.58;;
4704;SDS011;2366;51.332;6.610;2023-02-05T04:15:09;98.07;;;34.53;;
4704;SDS011;2366;51.332;6.610;2023-02-05T04:17:35;67.90;;;31.02;;
4704;SDS011;2366;51.332;6.610;2023-02-05T04:20:01;77.75;;;37.30;;
4704;SDS011;2366;51.332;6.610;2023-02-05T04:22:27;74.43;;;33.53;;
4704;SDS011;2366;51.332;6.610;2023-02-05T04:24:52;73.13;;;32.53;;
4704;SDS011;2366;51.332;6.610;2023-02-05T04:27:17;79.27;;;31.37;;
4704;SDS011;2366;51.332;6.610;2023-02-05T04:29:43;89.30;;;34.23;;
4704;SDS011;2366;51.332;6.610;2023-02-05T04:32:08;89.47;;;34.87;;
4704;SDS011;2366;51.332;6.610;2023-02-05T04:34:33;89.00;;;33.50;;
4704;SDS011;2366;51.332;6.610;2023-02-05T04:36:59;89.80;;;38.97;;
4704;SDS011;2366;51.332;6.610;2023-02-05T04:39:24;87.20;;;37.00;;
4704;SDS011;2366;51.332;6.610;2023-02-05T04:41:50;85.37;;;33.70;;
4704;SDS011;2366;51.332;6.610;2023-02-05T04:44:15;85.27;;;33.63;;
4704;SDS011;2366;51.332;6.610;2023-02-05T04:46:40;80.50;;;34.23;;
4704;SDS011;2366;51.332;6.610;2023-02-05T04:49:06;85.87;;;36.77;;
4704;SDS011;2366;51.332;6.610;2023-02-05T04:51:31;75.90;;;33.23;;
4704;SDS011;2366;51.332;6.610;2023-02-05T04:53:57;82.47;;;33.70;;
4704;SDS011;2366;51.332;6.610;2023-02-05T04:56:22;84.17;;;34.93;;
4704;SDS011;2366;51.332;6.610;2023-02-05T04:58:48;81.47;;;32.83;;
4704;SDS011;2366;51.332;6.610;2023-02-05T05:01:15;89.30;;;34.90;;
4704;SDS011;2366;51.332;6.610;2023-02-05T05:03:42;79.57;;;33.40;;
4704;SDS011;2366;51.332;6.610;2023-02-05T05:06:09;76.90;;;33.13;;
4704;SDS011;2366;51.332;6.610;2023-02-05T05:08:35;76.65;;;33.05;;
4704;SDS011;2366;51.332;6.610;2023-02-05T05:11:04;66.70;;;33.95;;
4704;SDS011;2366;51.332;6.610;2023-02-05T05:13:37;70.10;;;33.08;;
4704;SDS011;2366;51.332;6.610;2023-02-05T05:16:03;77.67;;;34.67;;
4704;SDS011;2366;51.332;6.610;2023-02-05T05:18:29;85.03;;;37.08;;
4704;SDS011;2366;51.332;6.610;2023-02-05T05:20:55;88.50;;;37.83;;
4704;SDS011;2366;51.332;6.610;2023-02-05T05:23:21;78.30;;;36.67;;
4704;SDS011;2366;51.332;6.610;2023-02-05T05:25:46;79.37;;;37.23;;
4704;SDS011;2366;51.332;6.610;2023-02-05T05:28:13;91.05;;;41.63;;
4704;SDS011;2366;51.332;6.610;2023-02-05T05:30:39;83.18;;;37.13;;
4704;SDS011;2366;51.332;6.610;2023-02-05T05:33:06;83.22;;;36.22;;
4704;SDS011;2366;51.332;6.610;2023-02-05T05:35:32;86.65;;;40.42;;
4704;SDS011;2366;51.332;6.610;2023-02-05T05:37:58;86.38;;;38.75;;
4704;SDS011;2366;51.332;6.610;2023-02-05T05:40:24;78.15;;;39.00;;
4704;SDS011;2366;51.332;6.610;2023-02-05T05:43:10;94.70;;;40.75;;
4704;SDS011;2366;51.332;6.610;2023-02-05T05:45:56;82.03;;;39.45;;
4704;SDS011;2366;51.332;6.610;2023-02-05T05:48:21;101.20;;;40.57;;
4704;SDS011;2366;51.332;6.610;2023-02-05T05:50:46;82.97;;;40.00;;
4704;SDS011;2366;51.332;6.610;2023-02-05T05:53:12;92.03;;;42.57;;
4704;SDS011;2366;51.332;6.610;2023-02-05T05:55:37;86.60;;;39.33;;
4704;SDS011;2366;51.332;6.610;2023-02-05T05:58:03;89.87;;;42.10;;
4704;SDS011;2366;51.332;6.610;2023-02-05T06:00:29;87.77;;;41.90;;
4704;SDS011;2366;51.332;6.610;2023-02-05T06:02:54;81.63;;;43.00;;
4704;SDS011;2366;51.332;6.610;2023-02-05T06:05:19;87.33;;;42.33;;
4704;SDS011;2366;51.332;6.610;2023-02-05T06:07:45;81.87;;;38.93;;
4704;SDS011;2366;51.332;6.610;2023-02-05T06:10:10;74.37;;;38.90;;
4704;SDS011;2366;51.332;6.610;2023-02-05T06:12:36;77.97;;;37.13;;
4704;SDS011;2366;51.332;6.610;2023-02-05T06:15:01;84.37;;;36.47;;
4704;SDS011;2366;51.332;6.610;2023-02-05T06:17:27;87.70;;;39.93;;
4704;SDS011;2366;51.332;6.610;2023-02-05T06:19:52;77.90;;;38.60;;
4704;SDS011;2366;51.332;6.610;2023-02-05T06:22:18;77.77;;;34.90;;
4704;SDS011;2366;51.332;6.610;2023-02-05T06:24:43;81.43;;;36.67;;
4704;SDS011;2366;51.332;6.610;2023-02-05T06:27:08;81.03;;;35.87;;
4704;SDS011;2366;51.332;6.610;2023-02-05T06:29:34;59.50;;;33.43;;
4704;SDS011;2366;51.332;6.610;2023-02-05T06:31:59;65.40;;;32.77;;
4704;SDS011;2366;51.332;6.610;2023-02-05T06:34:25;56.37;;;30.60;;
4704;SDS011;2366;51.332;6.610;2023-02-05T06:36:50;69.33;;;33.23;;
4704;SDS011;2366;51.332;6.610;2023-02-05T06:39:15;62.23;;;30.47;;
4704;SDS011;2366;51.332;6.610;2023-02-05T06:41:41;67.80;;;30.97;;
4704;SDS011;2366;51.332;6.610;2023-02-05T06:44:06;58.97;;;31.00;;
4704;SDS011;2366;51.332;6.610;2023-02-05T06:46:32;67.37;;;31.80;;
4704;SDS011;2366;51.332;6.610;2023-02-05T06:48:57;67.93;;;30.13;;
4704;SDS011;2366;51.332;6.610;2023-02-05T06:51:23;68.83;;;27.97;;
4704;SDS011;2366;51.332;6.610;2023-02-05T06:53:49;47.30;;;27.35;;
4704;SDS011;2366;51.332;6.610;2023-02-05T06:56:14;51.40;;;28.23;;
4704;SDS011;2366;51.332;6.610;2023-02-05T06:58:39;47.40;;;26.47;;
4704;SDS011;2366;51.332;6.610;2023-02-05T07:01:05;44.17;;;23.27;;
4704;SDS011;2366;51.332;6.610;2023-02-05T07:03:30;48.00;;;25.00;;
4704;SDS011;2366;51.332;6.610;2023-02-05T07:06:00;45.70;;;24.53;;
4704;SDS011;2366;51.332;6.610;2023-02-05T07:08:27;44.95;;;25.42;;
4704;SDS011;2366;51.332;6.610;2023-02-05T07:10:52;56.67;;;27.10;;
4704;SDS011;2366;51.332;6.610;2023-02-05T07:13:18;45.97;;;24.17;;
4704;SDS011;2366;51.332;6.610;2023-02-05T07:15:43;49.87;;;24.23;;
4704;SDS011;2366;51.332;6.610;2023-02-05T07:18:08;40.90;;;22.20;;
4704;SDS011;2366;51.332;6.610;2023-02-05T07:20:34;49.43;;;23.60;;
4704;SDS011;2366;51.332;6.610;2023-02-05T07:22:59;44.80;;;21.50;;
4704;SDS011;2366;51.332;6.610;2023-02-05T07:25:25;37.77;;;23.13;;
4704;SDS011;2366;51.332;6.610;2023-02-05T07:27:50;32.43;;;20.87;;
4704;SDS011;2366;51.332;6.610;2023-02-05T07:30:16;38.87;;;21.67;;
4704;SDS011;2366;51.332;6.610;2023-02-05T07:32:41;40.73;;;23.30;;
4704;SDS011;2366;51.332;6.610;2023-02-05T07:35:07;45.03;;;21.30;;
4704;SDS011;2366;51.332;6.610;2023-02-05T07:37:32;40.83;;;21.60;;
4704;SDS011;2366;51.332;6.610;2023-02-05T07:39:57;41.90;;;23.70;;
4704;SDS011;2366;51.332;6.610;2023-02-05T07:42:23;35.83;;;22.10;;
4704;SDS011;2366;51.332;6.610;2023-02-05T07:44:48;41.47;;;22.90;;
4704;SDS011;2366;51.332;6.610;2023-02-05T07:47:14;37.30;;;21.07;;
4704;SDS011;2366;51.332;6.610;2023-02-05T07:49:39;34.37;;;22.10;;
4704;SDS011;2366;51.332;6.610;2023-02-05T07:52:05;39.63;;;24.43;;
4704;SDS011;2366;51.332;6.610;2023-02-05T07:54:30;30.10;;;20.30;;
4704;SDS011;2366;51.332;6.610;2023-02-05T07:56:56;33.17;;;21.60;;
4704;SDS011;2366;51.332;6.610;2023-02-05T07:59:21;30.23;;;19.70;;
4704;SDS011;2366;51.332;6.610;2023-02-05T08:01:46;37.20;;;20.70;;
4704;SDS011;2366;51.332;6.610;2023-02-05T08:04:12;35.77;;;21.17;;
4704;SDS011;2366;51.332;6.610;2023-02-05T08:06:37;40.03;;;17.93;;
4704;SDS011;2366;51.332;6.610;2023-02-05T08:09:03;25.20;;;17.20;;
4704;SDS011;2366;51.332;6.610;2023-02-05T08:11:28;32.60;;;18.90;;
4704;SDS011;2366;51.332;6.610;2023-02-05T08:13:53;29.80;;;16.50;;
4704;SDS011;2366;51.332;6.610;2023-02-05T08:16:19;32.00;;;15.80;;
4704;SDS011;2366;51.332;6.610;2023-02-05T08:18:46;18.30;;;6.27;;
4704;SDS011;2366;51.332;6.610;2023-02-05T08:21:13;10.57;;;6.60;;
4704;SDS011;2366;51.332;6.610;2023-02-05T08:23:38;6.63;;;4.77;;
4704;SDS011;2366;51.332;6.610;2023-02-05T08:26:04;2.03;;;1.93;;
4704;SDS011;2366;51.332;6.610;2023-02-05T08:28:29;2.00;;;0.90;;
4704;SDS011;2366;51.332;6.610;2023-02-05T08:30:55;0.77;;;0.70;;
4704;SDS011;2366;51.332;6.610;2023-02-05T08:33:20;11.00;;;1.73;;
4704;SDS011;2366;51.332;6.610;2023-02-05T08:35:46;2.03;;;1.50;;
4704;SDS011;2366;51.332;6.610;2023-02-05T08:38:11;2.20;;;1.10;;
4704;SDS011;2366;51.332;6.610;2023-02-05T08:40:37;4.20;;;1.17;;
4704;SDS011;2366;51.332;6.610;2023-02-05T08:43:03;2.50;;;1.40;;
4704;SDS011;2366;51.332;6.610;2023-02-05T08:45:28;2.50;;;0.60;;
4704;SDS011;2366;51.332;6.610;2023-02-05T08:47:54;9.73;;;1.10;;
4704;SDS011;2366;51.332;6.610;2023-02-05T08:50:20;1.47;;;1.30;;
4704;SDS011;2366;51.332;6.610;2023-02-05T08:52:46;8.02;;;1.27;;
4704;SDS011;2366;51.332;6.610;2023-02-05T08:55:12;1.07;;;0.97;;
4704;SDS011;2366;51.332;6.610;2023-02-05T08:57:38;1.20;;;1.10;;
4704;SDS011;2366;51.332;6.610;2023-02-05T09:00:04;3.67;;;1.00;;
4704;SDS011;2366;51.332;6.610;2023-02-05T09:02:30;2.03;;;1.38;;
4704;SDS011;2366;51.332;6.610;2023-02-05T09:04:56;2.83;;;0.80;;
4704;SDS011;2366;51.332;6.610;2023-02-05T09:07:21;2.20;;;0.60;;
4704;SDS011;2366;51.332;6.610;2023-02-05T09:09:47;5.47;;;0.93;;
4704;SDS011;2366;51.332;6.610;2023-02-05T09:12:14;3.72;;;1.35;;
4704;SDS011;2366;51.332;6.610;2023-02-05T09:14:39;7.90;;;1.13;;
4704;SDS011;2366;51.332;6.610;2023-02-05T09:17:06;5.80;;;1.23;;
4704;SDS011;2366;51.332;6.610;2023-02-05T09:19:33;7.97;;;1.90;;
4704;SDS011;2366;51.332;6.610;2023-02-05T09:21:59;2.67;;;1.20;;
4704;SDS011;2366;51.332;6.610;2023-02-05T09:24:25;6.93;;;1.47;;
4704;SDS011;2366;51.332;6.610;2023-02-05T09:26:51;3.37;;;0.90;;
4704;SDS011;2366;51.332;6.610;2023-02-05T09:29:16;11.03;;;1.90;;
4704;SDS011;2366;51.332;6.610;2023-02-05T09:31:41;8.13;;;1.57;;
4704;SDS011;2366;51.332;6.610;2023-02-05T09:34:07;2.20;;;1.50;;
4704;SDS011;2366;51.332;6.610;2023-02-05T09:36:32;10.47;;;1.57;;
4704;SDS011;2366;51.332;6.610;2023-02-05T09:38:58;7.53;;;1.80;;
4704;SDS011;2366;51.332;6.610;2023-02-05T09:42:07;4.83;;;1.63;;
4704;SDS011;2366;51.332;6.610;2023-02-05T09:44:38;5.95;;;1.75;;
4704;SDS011;2366;51.332;6.610;2023-02-05T09:50:36;11.35;;;1.75;;
4704;SDS011;2366;51.332;6.610;2023-02-05T09:53:05;5.72;;;1.70;;
4704;SDS011;2366;51.332;6.610;2023-02-05T09:55:40;9.70;;;2.10;;
4704;SDS011;2366;51.332;6.610;2023-02-05T09:58:28;5.30;;;1.50;;
4704;SDS011;2366;51.332;6.610;2023-02-05T10:01:06;3.20;;;1.50;;
4704;SDS011;2366;51.332;6.610;2023-02-05T10:03:42;14.13;;;4.43;;
4704;SDS011;2366;51.332;6.610;2023-02-05T10:09:08;5.90;;;1.55;;
4704;SDS011;2366;51.332;6.610;2023-02-05T10:11:58;6.95;;;1.45;;
4704;SDS011;2366;51.332;6.610;2023-02-05T10:23:12;10.40;;;2.00;;
4704;SDS011;2366;51.332;6.610;2023-02-05T10:25:41;11.60;;;2.15;;
4704;SDS011;2366;51.332;6.610;2023-02-05T10:31:14;5.63;;;1.50;;
4704;SDS011;2366;51.332;6.610;2023-02-05T10:36:49;8.15;;;1.55;;
4704;SDS011;2366;51.332;6.610;2023-02-05T10:39:18;5.82;;;2.10;;
4704;SDS011;2366;51.332;6.610;2023-02-05T10:41:51;7.32;;;3.40;;
4704;SDS011;2366;51.332;6.610;2023-02-05T10:44:37;8.45;;;2.00;;
4704;SDS011;2366;51.332;6.610;2023-02-05T10:47:37;20.38;;;2.42;;
4704;SDS011;2366;51.332;6.610;2023-02-05T10:52:46;12.52;;;2.60;;
4704;SDS011;2366;51.332;6.610;2023-02-05T10:55:11;9.07;;;2.10;;
4704;SDS011;2366;51.332;6.610;2023-02-05T10:57:37;8.47;;;2.23;;
4704;SDS011;2366;51.332;6.610;2023-02-05T11:00:21;10.50;;;3.57;;
4704;SDS011;2366;51.332;6.610;2023-02-05T11:02:52;11.65;;;2.00;;
4704;SDS011;2366;51.332;6.610;2023-02-05T11:05:29;10.82;;;3.05;;
4704;SDS011;2366;51.332;6.610;2023-02-05T11:08:12;8.00;;;1.80;;
4704;SDS011;2366;51.332;6.610;2023-02-05T11:11:02;11.80;;;2.47;;
4704;SDS011;2366;51.332;6.610;2023-02-05T11:13:29;13.02;;;2.17;;
4704;SDS011;2366;51.332;6.610;2023-02-05T11:16:05;10.80;;;2.90;;
4704;SDS011;2366;51.332;6.610;2023-02-05T11:18:36;9.68;;;2.15;;
4704;SDS011;2366;51.332;6.610;2023-02-05T11:21:05;10.23;;;1.98;;
4704;SDS011;2366;51.332;6.610;2023-02-05T11:23:33;14.55;;;2.58;;
4704;SDS011;2366;51.332;6.610;2023-02-05T11:26:23;8.43;;;2.15;;
4704;SDS011;2366;51.332;6.610;2023-02-05T11:28:52;15.60;;;4.10;;
4704;SDS011;2366;51.332;6.610;2023-02-05T11:31:24;14.03;;;2.90;;
4704;SDS011;2366;51.332;6.610;2023-02-05T11:36:31;20.27;;;1.90;;
4704;SDS011;2366;51.332;6.610;2023-02-05T11:38:57;12.40;;;2.97;;
4704;SDS011;2366;51.332;6.610;2023-02-05T11:41:27;13.87;;;2.60;;
4704;SDS011;2366;51.332;6.610;2023-02-05T11:44:15;22.05;;;2.50;;
4704;SDS011;2366;51.332;6.610;2023-02-05T11:46:44;14.30;;;2.60;;
4704;SDS011;2366;51.332;6.610;2023-02-05T11:49:17;15.30;;;2.50;;
4704;SDS011;2366;51.332;6.610;2023-02-05T11:51:46;12.80;;;2.88;;
4704;SDS011;2366;51.332;6.610;2023-02-05T11:54:19;10.13;;;3.38;;
4704;SDS011;2366;51.332;6.610;2023-02-05T11:59:26;14.85;;;3.75;;
4704;SDS011;2366;51.332;6.610;2023-02-05T12:01:52;12.57;;;1.50;;
4704;SDS011;2366;51.332;6.610;2023-02-05T12:04:18;4.40;;;2.20;;
4704;SDS011;2366;51.332;6.610;2023-02-05T12:06:46;19.90;;;2.90;;
4704;SDS011;2366;51.332;6.610;2023-02-05T12:09:20;14.68;;;1.27;;
4704;SDS011;2366;51.332;6.610;2023-02-05T12:12:02;14.95;;;2.28;;
4704;SDS011;2366;51.332;6.610;2023-02-05T12:14:52;4.53;;;2.65;;
4704;SDS011;2366;51.332;6.610;2023-02-05T12:20:30;3.63;;;1.10;;
4704;SDS011;2366;51.332;6.610;2023-02-05T12:25:24;7.87;;;2.03;;
4704;SDS011;2366;51.332;6.610;2023-02-05T12:36:09;5.47;;;1.30;;
4704;SDS011;2366;51.332;6.610;2023-02-05T12:45:02;4.43;;;1.52;;
4704;SDS011;2366;51.332;6.610;2023-02-05T12:53:49;3.40;;;1.40;;
4704;SDS011;2366;51.332;6.610;2023-02-05T12:59:18;7.13;;;1.98;;
4704;SDS011;2366;51.332;6.610;2023-02-05T13:01:56;5.90;;;1.88;;
4704;SDS011;2366;51.332;6.610;2023-02-05T13:10:00;5.22;;;1.75;;
4704;SDS011;2366;51.332;6.610;2023-02-05T13:12:31;3.90;;;1.60;;
4704;SDS011;2366;51.332;6.610;2023-02-05T13:15:03;4.07;;;1.23;;
4704;SDS011;2366;51.332;6.610;2023-02-05T13:17:40;8.70;;;1.92;;
4704;SDS011;2366;51.332;6.610;2023-02-05T13:20:21;10.75;;;2.05;;
4704;SDS011;2366;51.332;6.610;2023-02-05T13:23:11;7.82;;;3.00;;
4704;SDS011;2366;51.332;6.610;2023-02-05T13:25:57;5.55;;;1.80;;
4704;SDS011;2366;51.332;6.610;2023-02-05T13:28:44;10.43;;;4.10;;
4704;SDS011;2366;51.332;6.610;2023-02-05T13:31:13;23.00;;;2.72;;
4704;SDS011;2366;51.332;6.610;2023-02-05T13:33:44;8.85;;;1.60;;
4704;SDS011;2366;51.332;6.610;2023-02-05T13:39:00;11.45;;;1.75;;
4704;SDS011;2366;51.332;6.610;2023-02-05T13:47:44;10.55;;;2.22;;
4704;SDS011;2366;51.332;6.610;2023-02-05T13:50:27;6.93;;;1.60;;
4704;SDS011;2366;51.332;6.610;2023-02-05T13:56:14;9.98;;;3.10;;
4704;SDS011;2366;51.332;6.610;2023-02-05T13:59:00;12.70;;;2.75;;
4704;SDS011;2366;51.332;6.610;2023-02-05T14:01:33;8.32;;;2.83;;
4704;SDS011;2366;51.332;6.610;2023-02-05T14:04:22;8.18;;;1.55;;
4704;SDS011;2366;51.332;6.610;2023-02-05T14:06:55;9.38;;;1.88;;
4704;SDS011;2366;51.332;6.610;2023-02-05T14:09:29;11.93;;;1.90;;
4704;SDS011;2366;51.332;6.610;2023-02-05T14:12:21;13.15;;;2.58;;
4704;SDS011;2366;51.332;6.610;2023-02-05T14:15:21;11.70;;;2.13;;
4704;SDS011;2366;51.332;6.610;2023-02-05T14:22:50;7.32;;;1.83;;
4704;SDS011;2366;51.332;6.610;2023-02-05T14:30:47;8.32;;;2.08;;
4704;SDS011;2366;51.332;6.610;2023-02-05T14:36:43;18.20;;;2.35;;
4704;SDS011;2366;51.332;6.610;2023-02-05T14:38:39;6.38;;;2.22;;
4704;SDS011;2366;51.332;6.610;2023-02-05T14:41:19;11.20;;;1.98;;
4704;SDS011;2366;51.332;6.610;2023-02-05T14:44:13;11.52;;;3.15;;
4704;SDS011;2366;51.332;6.610;2023-02-05T14:46:43;15.57;;;3.05;;
4704;SDS011;2366;51.332;6.610;2023-02-05T14:49:20;6.93;;;1.55;;
4704;SDS011;2366;51.332;6.610;2023-02-05T14:52:01;18.60;;;2.15;;
4704;SDS011;2366;51.332;6.610;2023-02-05T15:00:43;12.05;;;2.50;;
4704;SDS011;2366;51.332;6.610;2023-02-05T15:03:01;11.90;;;2.53;;
4704;SDS011;2366;51.332;6.610;2023-02-05T15:13:19;17.83;;;3.58;;
4704;SDS011;2366;51.332;6.610;2023-02-05T15:16:06;16.65;;;2.92;;
4704;SDS011;2366;51.332;6.610;2023-02-05T15:24:01;14.25;;;3.30;;
4704;SDS011;2366;51.332;6.610;2023-02-05T15:29:27;15.88;;;3.28;;
4704;SDS011;2366;51.332;6.610;2023-02-05T15:31:59;32.13;;;2.97;;
4704;SDS011;2366;51.332;6.610;2023-02-05T15:34:35;19.60;;;3.22;;
4704;SDS011;2366;51.332;6.610;2023-02-05T15:39:50;18.95;;;3.45;;
4704;SDS011;2366;51.332;6.610;2023-02-05T15:42:19;30.25;;;4.30;;
4704;SDS011;2366;51.332;6.610;2023-02-05T15:44:50;10.38;;;3.10;;
4704;SDS011;2366;51.332;6.610;2023-02-05T15:47:17;11.70;;;4.10;;
4704;SDS011;2366;51.332;6.610;2023-02-05T15:49:46;10.63;;;3.63;;
4704;SDS011;2366;51.332;6.610;2023-02-05T15:52:16;13.52;;;2.17;;
4704;SDS011;2366;51.332;6.610;2023-02-05T15:54:44;19.67;;;3.75;;
4704;SDS011;2366;51.332;6.610;2023-02-05T15:57:20;22.00;;;3.33;;
4704;SDS011;2366;51.332;6.610;2023-02-05T15:59:48;26.05;;;5.03;;
4704;SDS011;2366;51.332;6.610;2023-02-05T16:02:33;14.60;;;3.45;;
4704;SDS011;2366;51.332;6.610;2023-02-05T16:05:18;14.80;;;3.58;;
4704;SDS011;2366;51.332;6.610;2023-02-05T16:07:47;24.27;;;5.03;;
4704;SDS011;2366;51.332;6.610;2023-02-05T16:10:23;24.50;;;3.92;;
4704;SDS011;2366;51.332;6.610;2023-02-05T16:15:30;25.38;;;5.00;;
4704;SDS011;2366;51.332;6.610;2023-02-05T16:18:01;15.82;;;4.00;;
4704;SDS011;2366;51.332;6.610;2023-02-05T16:20:31;11.98;;;3.50;;
4704;SDS011;2366;51.332;6.610;2023-02-05T16:23:01;23.33;;;4.38;;
4704;SDS011;2366;51.332;6.610;2023-02-05T16:30:43;13.88;;;4.30;;
4704;SDS011;2366;51.332;6.610;2023-02-05T16:35:48;14.85;;;4.00;;
4704;SDS011;2366;51.332;6.610;2023-02-05T16:38:14;18.23;;;6.17;;
4704;SDS011;2366;51.332;6.610;2023-02-05T16:40:44;18.02;;;4.45;;
4704;SDS011;2366;51.332;6.610;2023-02-05T16:48:31;13.27;;;3.30;;
4704;SDS011;2366;51.332;6.610;2023-02-05T16:50:57;15.60;;;5.35;;
4704;SDS011;2366;51.332;6.610;2023-02-05T16:53:25;21.10;;;5.13;;
4704;SDS011;2366;51.332;6.610;2023-02-05T16:56:10;13.80;;;3.40;;
4704;SDS011;2366;51.332;6.610;2023-02-05T16:58:45;19.35;;;4.07;;
4704;SDS011;2366;51.332;6.610;2023-02-05T17:01:12;26.08;;;6.15;;
4704;SDS011;2366;51.332;6.610;2023-02-05T17:03:39;10.53;;;3.57;;
4704;SDS011;2366;51.332;6.610;2023-02-05T17:06:12;17.42;;;3.65;;
4704;SDS011;2366;51.332;6.610;2023-02-05T17:08:39;15.88;;;3.75;;
4704;SDS011;2366;51.332;6.610;2023-02-05T17:11:07;15.27;;;3.97;;
4704;SDS011;2366;51.332;6.610;2023-02-05T17:24:47;24.33;;;4.72;;
4704;SDS011;2366;51.332;6.610;2023-02-05T17:27:18;19.10;;;3.78;;
4704;SDS011;2366;51.332;6.610;2023-02-05T17:29:54;17.23;;;3.75;;
4704;SDS011;2366;51.332;6.610;2023-02-05T17:32:20;11.40;;;3.72;;
4704;SDS011;2366;51.332;6.610;2023-02-05T17:34:46;24.20;;;4.57;;
4704;SDS011;2366;51.332;6.610;2023-02-05T17:37:12;21.60;;;4.37;;
4704;SDS011;2366;51.332;6.610;2023-02-05T17:39:38;15.63;;;4.15;;
4704;SDS011;2366;51.332;6.610;2023-02-05T17:42:05;18.60;;;4.00;;
4704;SDS011;2366;51.332;6.610;2023-02-05T17:44:34;27.17;;;4.90;;
4704;SDS011;2366;51.332;6.610;2023-02-05T17:47:00;10.55;;;3.35;;
4704;SDS011;2366;51.332;6.610;2023-02-05T17:49:27;14.77;;;3.85;;
4704;SDS011;2366;51.332;6.610;2023-02-05T17:51:52;9.30;;;2.93;;
4704;SDS011;2366;51.332;6.610;2023-02-05T17:54:18;27.07;;;3.17;;
4704;SDS011;2366;51.332;6.610;2023-02-05T17:56:45;14.52;;;3.05;;
4704;SDS011;2366;51.332;6.610;2023-02-05T17:59:13;22.65;;;3.33;;
4704;SDS011;2366;51.332;6.610;2023-02-05T18:01:40;22.15;;;4.05;;